• Join FlightAware (Why Join?)
  • Login
  • US Flag 
08:29AM EDT


 

Airport Tracker/Info


-or-


 

Live Flight TrackerFlight Track Log ✈ KAP644 ✈ 05-Jun-2013 ✈ KBOS - KMVY

Flight Track Log - Related Links

Times and Time Zones

All times are in EDT time to prevent confusion due to time zone crossing. See the KAP644 flight status page for this flight to view local times or setup timezone preferences in your user account.

Time Position Orientation Groundspeed Altitude Reporting Facility
EDT Latitude Longitude Course Direction KTS MPH feet Rate Location/Type
06:38PM 42.3500 -70.9833 114° Southeast 93 107 700  Level KA90
06:39PM 42.3333 -70.9333 114° Southeast 111 128 1,600 720 Climbing KA90
06:40PM 42.3167 -70.9000 124° Southeast 110 127 2,200 600 Climbing KA90
06:41PM 42.3000 -70.9000 180° South 104 120 2,800 540 Climbing KA90
06:42PM 42.2667 -70.8833 160° South 114 131 3,300 360 Climbing KA90
06:43PM 42.2333 -70.8833 180° South 125 144 3,600 120 Climbing KA90
06:44PM 42.1833 -70.8667 166° South 158 182 3,600  Level KA90
06:45PM 42.1333 -70.8500 166° South 170 196 3,600  Level KA90
06:47PM 42.0816 -70.8333 160° South  Level Estimated
06:54PM 41.8268 -70.7758 161° South  Level FlightAware Approximate
06:55PM 41.7916 -70.7598 161° South  Level FlightAware Approximate
06:56PM 41.7565 -70.7438 161° South  Level FlightAware Approximate
06:57PM 41.7211 -70.7287 164° South  Level FlightAware Approximate
06:58PM 41.6853 -70.7153 164° South  Level FlightAware Approximate
06:59PM 41.6496 -70.7019 164° South  Level FlightAware Approximate
07:00PM 41.6138 -70.6885 164° South  Level FlightAware Approximate
07:01PM 41.5780 -70.6751 164° South  Level FlightAware Approximate
07:02PM 41.5423 -70.6617 164° South  Level FlightAware Approximate
07:03PM 41.5065 -70.6482 164° South  Level FlightAware Approximate
07:04PM 41.4707 -70.6349 164° South  Level FlightAware Approximate
07:05PM 41.4352 -70.6207 163° South  Level FlightAware Approximate
07:06PM 41.3996 -70.6065 163° South  Level FlightAware Approximate
07:07PM 41.3934 -70.6139 163° South  Level Estimated
07:08PM 41.3934 -70.6139 163° South  Level Estimated
07:09PM 41.3934 -70.6139 163° South  Level Estimated
07:10PM 41.3934 -70.6139 163° South  Level Estimated
07:11PM 41.3934 -70.6139 163° South  Level Estimated
07:12PM 41.3934 -70.6139 163° South  Level Estimated
07:13PM 41.3934 -70.6139 163° South  Level Estimated
07:14PM 41.3934 -70.6139 163° South  Level Estimated
07:15PM 41.3934 -70.6139 163° South  Level Estimated
07:16PM 41.3934 -70.6139 163° South  Level Estimated
07:17PM 41.3934 -70.6139 163° South  Level Estimated
07:18PM 41.3934 -70.6139 163° South  Level Estimated
07:19PM 41.3934 -70.6139 163° South  Level Estimated
07:20PM 41.3934 -70.6139 163° South  Level Estimated
07:21PM 41.3934 -70.6139 163° South  Level Estimated